sensor_id;sensor_type;location;lat;lon;timestamp;pressure;altitude;pressure_sealevel;temperature;humidity
15382;BME280;7789;51.364;12.358;2023-04-06T00:00:24;100795.00;;;5.92;61.90
15382;BME280;7789;51.364;12.358;2023-04-06T00:05:28;100803.34;;;5.97;61.70
15382;BME280;7789;51.364;12.358;2023-04-06T00:10:32;100803.09;;;6.01;62.28
15382;BME280;7789;51.364;12.358;2023-04-06T00:15:37;100795.56;;;5.97;62.20
15382;BME280;7789;51.364;12.358;2023-04-06T00:20:41;100793.97;;;5.94;62.27
15382;BME280;7789;51.364;12.358;2023-04-06T00:25:44;100791.31;;;5.96;61.73
15382;BME280;7789;51.364;12.358;2023-04-06T00:30:51;100797.41;;;5.95;62.34
15382;BME280;7789;51.364;12.358;2023-04-06T00:35:57;100784.50;;;5.93;62.52
15382;BME280;7789;51.364;12.358;2023-04-06T00:41:01;100783.78;;;5.91;62.27
15382;BME280;7789;51.364;12.358;2023-04-06T00:46:07;100781.44;;;5.87;62.73
15382;BME280;7789;51.364;12.358;2023-04-06T00:51:11;100779.19;;;5.81;62.82
15382;BME280;7789;51.364;12.358;2023-04-06T00:56:15;100772.25;;;5.81;63.04
15382;BME280;7789;51.364;12.358;2023-04-06T01:01:20;100775.06;;;5.77;63.04
15382;BME280;7789;51.364;12.358;2023-04-06T01:06:23;100770.88;;;5.74;63.01
15382;BME280;7789;51.364;12.358;2023-04-06T01:11:27;100765.69;;;5.74;63.32
15382;BME280;7789;51.364;12.358;2023-04-06T01:16:33;100765.13;;;5.69;63.85
15382;BME280;7789;51.364;12.358;2023-04-06T01:21:37;100769.13;;;5.75;63.56
15382;BME280;7789;51.364;12.358;2023-04-06T01:26:42;100771.63;;;5.76;64.35
15382;BME280;7789;51.364;12.358;2023-04-06T01:31:47;100756.84;;;5.78;63.60
15382;BME280;7789;51.364;12.358;2023-04-06T01:36:51;100752.97;;;5.70;63.49
15382;BME280;7789;51.364;12.358;2023-04-06T01:41:55;100747.22;;;5.65;64.31
15382;BME280;7789;51.364;12.358;2023-04-06T01:46:59;100749.06;;;5.63;64.61
15382;BME280;7789;51.364;12.358;2023-04-06T01:52:03;100742.94;;;5.64;64.58
15382;BME280;7789;51.364;12.358;2023-04-06T01:57:10;100747.22;;;5.65;64.90
15382;BME280;7789;51.364;12.358;2023-04-06T02:02:13;100738.69;;;5.63;64.89
15382;BME280;7789;51.364;12.358;2023-04-06T02:07:17;100753.25;;;5.50;64.96
15382;BME280;7789;51.364;12.358;2023-04-06T02:12:22;100743.63;;;5.52;65.38
15382;BME280;7789;51.364;12.358;2023-04-06T02:17:26;100736.75;;;5.51;65.58
15382;BME280;7789;51.364;12.358;2023-04-06T02:22:30;100735.28;;;5.47;65.95
15382;BME280;7789;51.364;12.358;2023-04-06T02:27:35;100731.34;;;5.40;66.18
15382;BME280;7789;51.364;12.358;2023-04-06T02:32:38;100732.34;;;5.38;66.52
15382;BME280;7789;51.364;12.358;2023-04-06T02:37:42;100725.56;;;5.35;66.50
15382;BME280;7789;51.364;12.358;2023-04-06T02:42:47;100724.91;;;5.32;66.42
15382;BME280;7789;51.364;12.358;2023-04-06T02:47:50;100730.28;;;5.29;66.58
15382;BME280;7789;51.364;12.358;2023-04-06T02:52:54;100738.38;;;5.23;66.81
15382;BME280;7789;51.364;12.358;2023-04-06T02:57:58;100742.72;;;5.22;66.81
15382;BME280;7789;51.364;12.358;2023-04-06T03:03:02;100746.25;;;5.21;67.54
15382;BME280;7789;51.364;12.358;2023-04-06T03:08:05;100742.78;;;5.21;67.50
15382;BME280;7789;51.364;12.358;2023-04-06T03:13:10;100742.03;;;5.19;67.70
15382;BME280;7789;51.364;12.358;2023-04-06T03:18:14;100733.69;;;5.14;67.99
15382;BME280;7789;51.364;12.358;2023-04-06T03:23:17;100737.44;;;5.08;68.75
15382;BME280;7789;51.364;12.358;2023-04-06T03:28:24;100740.28;;;5.04;69.27
15382;BME280;7789;51.364;12.358;2023-04-06T03:33:27;100745.78;;;4.98;69.00
15382;BME280;7789;51.364;12.358;2023-04-06T03:38:31;100732.38;;;4.90;69.89
15382;BME280;7789;51.364;12.358;2023-04-06T03:43:36;100737.91;;;4.84;70.17
15382;BME280;7789;51.364;12.358;2023-04-06T03:48:40;100739.28;;;4.74;70.26
15382;BME280;7789;51.364;12.358;2023-04-06T03:53:43;100741.53;;;4.64;70.58
15382;BME280;7789;51.364;12.358;2023-04-06T03:58:48;100742.59;;;4.60;71.42
15382;BME280;7789;51.364;12.358;2023-04-06T04:03:53;100755.94;;;4.53;71.49
15382;BME280;7789;51.364;12.358;2023-04-06T04:08:57;100751.16;;;4.45;71.46
15382;BME280;7789;51.364;12.358;2023-04-06T04:14:02;100757.41;;;4.41;71.77
15382;BME280;7789;51.364;12.358;2023-04-06T04:19:05;100755.88;;;4.37;72.67
15382;BME280;7789;51.364;12.358;2023-04-06T04:24:09;100768.19;;;4.32;72.70
15382;BME280;7789;51.364;12.358;2023-04-06T04:29:14;100767.59;;;4.27;73.48
15382;BME280;7789;51.364;12.358;2023-04-06T04:34:18;100766.16;;;4.22;74.19
15382;BME280;7789;51.364;12.358;2023-04-06T04:39:25;100777.50;;;4.19;74.03
15382;BME280;7789;51.364;12.358;2023-04-06T04:44:30;100778.16;;;4.23;74.28
15382;BME280;7789;51.364;12.358;2023-04-06T04:49:34;100764.94;;;4.29;74.73
15382;BME280;7789;51.364;12.358;2023-04-06T04:54:37;100764.63;;;4.35;74.63
15382;BME280;7789;51.364;12.358;2023-04-06T04:59:44;100769.66;;;4.38;75.12
15382;BME280;7789;51.364;12.358;2023-04-06T05:04:52;100776.28;;;4.43;75.56
15382;BME280;7789;51.364;12.358;2023-04-06T05:09:56;100777.63;;;4.50;75.17
15382;BME280;7789;51.364;12.358;2023-04-06T05:15:01;100773.72;;;4.59;74.38
15382;BME280;7789;51.364;12.358;2023-04-06T05:20:06;100774.88;;;4.70;74.64
15382;BME280;7789;51.364;12.358;2023-04-06T05:25:10;100770.88;;;4.80;73.91
15382;BME280;7789;51.364;12.358;2023-04-06T05:30:15;100778.78;;;4.94;73.49
15382;BME280;7789;51.364;12.358;2023-04-06T05:35:18;100777.72;;;5.14;73.03
15382;BME280;7789;51.364;12.358;2023-04-06T05:40:22;100774.22;;;5.30;72.54
15382;BME280;7789;51.364;12.358;2023-04-06T05:45:28;100785.28;;;5.49;71.76
15382;BME280;7789;51.364;12.358;2023-04-06T05:50:31;100777.50;;;5.64;70.81
15382;BME280;7789;51.364;12.358;2023-04-06T05:55:34;100780.19;;;5.78;70.29
15382;BME280;7789;51.364;12.358;2023-04-06T06:00:42;100779.06;;;5.98;69.26
15382;BME280;7789;51.364;12.358;2023-04-06T06:05:51;100791.81;;;6.89;67.20
15382;BME280;7789;51.364;12.358;2023-04-06T06:10:54;100773.94;;;7.53;63.82
15382;BME280;7789;51.364;12.358;2023-04-06T06:16:00;100778.94;;;7.56;63.65
15382;BME280;7789;51.364;12.358;2023-04-06T06:21:07;100767.97;;;10.82;56.04
15382;BME280;7789;51.364;12.358;2023-04-06T06:26:11;100765.91;;;11.73;53.64
15382;BME280;7789;51.364;12.358;2023-04-06T06:31:16;100788.94;;;12.01;53.13
15382;BME280;7789;51.364;12.358;2023-04-06T06:36:22;100792.66;;;12.30;49.56
15382;BME280;7789;51.364;12.358;2023-04-06T06:41:27;100771.81;;;15.28;44.05
15382;BME280;7789;51.364;12.358;2023-04-06T06:46:32;100775.25;;;16.62;41.42
15382;BME280;7789;51.364;12.358;2023-04-06T06:51:35;100763.88;;;18.11;38.75
15382;BME280;7789;51.364;12.358;2023-04-06T06:56:39;100776.91;;;17.96;37.94
15382;BME280;7789;51.364;12.358;2023-04-06T07:01:44;100777.50;;;18.48;36.21
15382;BME280;7789;51.364;12.358;2023-04-06T07:06:48;100767.75;;;18.40;34.91
15382;BME280;7789;51.364;12.358;2023-04-06T07:11:52;100780.59;;;18.99;33.13
15382;BME280;7789;51.364;12.358;2023-04-06T07:17:01;100777.31;;;20.12;31.30
15382;BME280;7789;51.364;12.358;2023-04-06T07:22:04;100775.06;;;19.24;32.54
15382;BME280;7789;51.364;12.358;2023-04-06T07:27:11;100773.75;;;19.12;33.27
15382;BME280;7789;51.364;12.358;2023-04-06T07:32:16;100779.91;;;19.59;31.44
15382;BME280;7789;51.364;12.358;2023-04-06T07:37:22;100784.72;;;19.56;30.88
15382;BME280;7789;51.364;12.358;2023-04-06T07:42:25;100771.16;;;19.59;31.04
15382;BME280;7789;51.364;12.358;2023-04-06T07:47:31;100780.34;;;20.01;30.77
15382;BME280;7789;51.364;12.358;2023-04-06T07:52:34;100779.31;;;19.80;30.13
15382;BME280;7789;51.364;12.358;2023-04-06T07:57:39;100775.59;;;19.58;30.52
15382;BME280;7789;51.364;12.358;2023-04-06T08:02:45;100777.44;;;20.19;28.76
15382;BME280;7789;51.364;12.358;2023-04-06T08:07:48;100773.50;;;19.84;28.77
15382;BME280;7789;51.364;12.358;2023-04-06T08:12:52;100761.78;;;19.71;29.08
15382;BME280;7789;51.364;12.358;2023-04-06T08:17:57;100773.34;;;18.69;29.54
15382;BME280;7789;51.364;12.358;2023-04-06T08:23:00;100769.66;;;19.56;28.46
15382;BME280;7789;51.364;12.358;2023-04-06T08:28:07;100763.41;;;19.49;29.66
15382;BME280;7789;51.364;12.358;2023-04-06T08:33:13;100772.38;;;19.79;29.70
15382;BME280;7789;51.364;12.358;2023-04-06T08:38:16;100766.81;;;19.19;29.80
15382;BME280;7789;51.364;12.358;2023-04-06T08:43:22;100763.09;;;19.97;29.15
15382;BME280;7789;51.364;12.358;2023-04-06T08:48:27;100760.41;;;19.44;30.11
15382;BME280;7789;51.364;12.358;2023-04-06T08:53:31;100758.16;;;20.98;28.18
15382;BME280;7789;51.364;12.358;2023-04-06T08:58:35;100766.47;;;19.91;28.84
15382;BME280;7789;51.364;12.358;2023-04-06T09:03:42;100763.81;;;19.22;29.54
15382;BME280;7789;51.364;12.358;2023-04-06T09:08:46;100757.28;;;18.71;30.92
15382;BME280;7789;51.364;12.358;2023-04-06T09:13:51;100756.13;;;18.33;30.99
15382;BME280;7789;51.364;12.358;2023-04-06T09:19:03;100751.34;;;18.69;30.31
15382;BME280;7789;51.364;12.358;2023-04-06T09:24:08;100748.31;;;18.79;29.17
15382;BME280;7789;51.364;12.358;2023-04-06T09:29:22;100745.16;;;18.04;30.34
15382;BME280;7789;51.364;12.358;2023-04-06T09:34:29;100748.13;;;17.36;29.00
15382;BME280;7789;51.364;12.358;2023-04-06T09:39:32;100743.53;;;17.12;29.63
15382;BME280;7789;51.364;12.358;2023-04-06T09:44:36;100745.78;;;16.99;29.84
15382;BME280;7789;51.364;12.358;2023-04-06T09:49:41;100744.13;;;16.73;28.78
15382;BME280;7789;51.364;12.358;2023-04-06T09:54:50;100742.91;;;16.25;28.91
15382;BME280;7789;51.364;12.358;2023-04-06T10:00:03;100751.22;;;16.12;29.82
15382;BME280;7789;51.364;12.358;2023-04-06T10:05:18;100743.75;;;16.43;30.22
15382;BME280;7789;51.364;12.358;2023-04-06T10:10:23;100735.63;;;16.36;29.71
15382;BME280;7789;51.364;12.358;2023-04-06T10:15:28;100745.63;;;16.50;29.10
15382;BME280;7789;51.364;12.358;2023-04-06T10:20:42;100736.66;;;16.26;29.03
15382;BME280;7789;51.364;12.358;2023-04-06T10:25:54;100732.66;;;16.22;30.43
15382;BME280;7789;51.364;12.358;2023-04-06T10:31:04;100729.78;;;16.33;29.96
15382;BME280;7789;51.364;12.358;2023-04-06T10:36:14;100728.44;;;15.94;29.99
15382;BME280;7789;51.364;12.358;2023-04-06T10:41:21;100720.53;;;15.22;30.38
15382;BME280;7789;51.364;12.358;2023-04-06T10:46:26;100730.75;;;15.08;30.07
15382;BME280;7789;51.364;12.358;2023-04-06T10:51:37;100720.53;;;14.95;30.75
15382;BME280;7789;51.364;12.358;2023-04-06T10:56:41;100714.25;;;15.06;31.25
15382;BME280;7789;51.364;12.358;2023-04-06T11:01:47;100706.44;;;15.14;32.08
15382;BME280;7789;51.364;12.358;2023-04-06T11:06:52;100702.19;;;15.40;32.41
15382;BME280;7789;51.364;12.358;2023-04-06T11:11:58;100711.69;;;15.33;32.41
15382;BME280;7789;51.364;12.358;2023-04-06T11:17:03;100694.97;;;15.15;32.33
15382;BME280;7789;51.364;12.358;2023-04-06T11:22:08;100685.06;;;15.26;31.54
15382;BME280;7789;51.364;12.358;2023-04-06T11:27:12;100684.78;;;15.29;31.88
15382;BME280;7789;51.364;12.358;2023-04-06T11:32:20;100682.56;;;15.25;32.01
15382;BME280;7789;51.364;12.358;2023-04-06T11:37:27;100686.84;;;15.26;32.11
15382;BME280;7789;51.364;12.358;2023-04-06T11:42:34;100676.41;;;15.07;31.46
15382;BME280;7789;51.364;12.358;2023-04-06T11:47:37;100671.28;;;14.79;31.46
15382;BME280;7789;51.364;12.358;2023-04-06T11:52:44;100674.31;;;14.83;30.88
15382;BME280;7789;51.364;12.358;2023-04-06T11:57:49;100674.34;;;14.74;31.01
15382;BME280;7789;51.364;12.358;2023-04-06T12:02:56;100658.91;;;14.52;31.51
15382;BME280;7789;51.364;12.358;2023-04-06T12:08:02;100663.03;;;14.55;31.21
15382;BME280;7789;51.364;12.358;2023-04-06T12:13:06;100654.22;;;14.46;31.74
15382;BME280;7789;51.364;12.358;2023-04-06T12:18:10;100645.66;;;14.35;32.14
15382;BME280;7789;51.364;12.358;2023-04-06T12:23:15;100645.38;;;14.38;31.70
15382;BME280;7789;51.364;12.358;2023-04-06T12:28:21;100640.53;;;14.43;31.76
15382;BME280;7789;51.364;12.358;2023-04-06T12:33:28;100631.72;;;14.15;31.78
15382;BME280;7789;51.364;12.358;2023-04-06T12:38:34;100632.16;;;14.01;31.53
15382;BME280;7789;51.364;12.358;2023-04-06T12:43:40;100633.94;;;14.01;32.01
15382;BME280;7789;51.364;12.358;2023-04-06T12:48:45;100627.72;;;13.83;31.75
15382;BME280;7789;51.364;12.358;2023-04-06T12:53:51;100617.09;;;13.75;31.91
15382;BME280;7789;51.364;12.358;2023-04-06T12:58:55;100614.88;;;13.80;32.39
15382;BME280;7789;51.364;12.358;2023-04-06T13:04:04;100609.88;;;13.86;32.13
15382;BME280;7789;51.364;12.358;2023-04-06T13:09:13;100617.63;;;13.78;31.78
15382;BME280;7789;51.364;12.358;2023-04-06T13:14:17;100616.53;;;13.71;32.25
15382;BME280;7789;51.364;12.358;2023-04-06T13:19:20;100613.63;;;13.65;32.47
15382;BME280;7789;51.364;12.358;2023-04-06T13:24:29;100606.44;;;13.67;32.14
15382;BME280;7789;51.364;12.358;2023-04-06T13:29:33;100610.88;;;13.66;32.21
15382;BME280;7789;51.364;12.358;2023-04-06T13:34:38;100594.69;;;13.52;31.90
15382;BME280;7789;51.364;12.358;2023-04-06T13:39:43;100594.56;;;13.53;32.04
15382;BME280;7789;51.364;12.358;2023-04-06T13:44:47;100592.63;;;13.46;32.17
15382;BME280;7789;51.364;12.358;2023-04-06T13:49:53;100583.50;;;13.40;32.15
15382;BME280;7789;51.364;12.358;2023-04-06T13:54:59;100588.63;;;13.32;32.42
15382;BME280;7789;51.364;12.358;2023-04-06T14:00:03;100593.72;;;13.24;32.21
15382;BME280;7789;51.364;12.358;2023-04-06T14:05:13;100583.09;;;13.26;32.48
15382;BME280;7789;51.364;12.358;2023-04-06T14:10:18;100574.66;;;13.22;32.57
15382;BME280;7789;51.364;12.358;2023-04-06T14:15:25;100580.19;;;13.19;32.81
15382;BME280;7789;51.364;12.358;2023-04-06T14:20:31;100577.44;;;13.21;33.16
15382;BME280;7789;51.364;12.358;2023-04-06T14:25:36;100575.78;;;13.20;32.55
15382;BME280;7789;51.364;12.358;2023-04-06T14:30:43;100575.31;;;13.15;32.51
15382;BME280;7789;51.364;12.358;2023-04-06T14:35:49;100574.50;;;13.05;33.26
15382;BME280;7789;51.364;12.358;2023-04-06T14:40:55;100573.25;;;13.09;33.37
15382;BME280;7789;51.364;12.358;2023-04-06T14:46:02;100568.97;;;13.08;33.74
15382;BME280;7789;51.364;12.358;2023-04-06T14:51:05;100567.59;;;13.13;33.47
15382;BME280;7789;51.364;12.358;2023-04-06T14:56:19;100552.25;;;12.99;33.23
15382;BME280;7789;51.364;12.358;2023-04-06T15:01:24;100552.78;;;12.93;33.38
15382;BME280;7789;51.364;12.358;2023-04-06T15:06:27;100551.00;;;12.94;33.27
15382;BME280;7789;51.364;12.358;2023-04-06T15:11:32;100543.00;;;12.96;32.95
15382;BME280;7789;51.364;12.358;2023-04-06T15:16:36;100550.16;;;12.93;32.98
15382;BME280;7789;51.364;12.358;2023-04-06T15:21:43;100550.66;;;12.88;33.25
15382;BME280;7789;51.364;12.358;2023-04-06T15:26:48;100548.31;;;12.85;33.70
15382;BME280;7789;51.364;12.358;2023-04-06T15:31:54;100548.03;;;12.78;33.76
15382;BME280;7789;51.364;12.358;2023-04-06T15:37:00;100540.44;;;12.75;34.14
15382;BME280;7789;51.364;12.358;2023-04-06T15:42:07;100543.06;;;12.75;33.95
15382;BME280;7789;51.364;12.358;2023-04-06T15:47:13;100544.03;;;12.74;33.68
15382;BME280;7789;51.364;12.358;2023-04-06T15:52:18;100541.94;;;12.68;34.62
15382;BME280;7789;51.364;12.358;2023-04-06T15:57:25;100547.31;;;12.67;33.44
15382;BME280;7789;51.364;12.358;2023-04-06T16:02:28;100545.09;;;12.62;34.64
15382;BME280;7789;51.364;12.358;2023-04-06T16:07:36;100546.44;;;12.57;33.79
15382;BME280;7789;51.364;12.358;2023-04-06T16:12:41;100544.94;;;12.54;34.52
15382;BME280;7789;51.364;12.358;2023-04-06T16:17:45;100540.22;;;12.48;33.93
15382;BME280;7789;51.364;12.358;2023-04-06T16:22:48;100539.78;;;12.43;34.36
15382;BME280;7789;51.364;12.358;2023-04-06T16:27:56;100540.06;;;12.40;34.97
15382;BME280;7789;51.364;12.358;2023-04-06T16:32:59;100542.09;;;12.37;35.31
15382;BME280;7789;51.364;12.358;2023-04-06T16:38:04;100548.84;;;12.30;35.14
15382;BME280;7789;51.364;12.358;2023-04-06T16:43:12;100537.91;;;12.25;34.97
15382;BME280;7789;51.364;12.358;2023-04-06T16:48:16;100551.28;;;12.22;35.36
15382;BME280;7789;51.364;12.358;2023-04-06T16:53:29;100549.31;;;12.14;35.24
15382;BME280;7789;51.364;12.358;2023-04-06T16:58:34;100550.69;;;12.09;34.51
15382;BME280;7789;51.364;12.358;2023-04-06T17:03:41;100548.47;;;12.04;35.46
15382;BME280;7789;51.364;12.358;2023-04-06T17:08:46;100558.75;;;11.96;36.83
15382;BME280;7789;51.364;12.358;2023-04-06T17:13:54;100552.75;;;11.85;37.24
15382;BME280;7789;51.364;12.358;2023-04-06T17:18:57;100552.94;;;11.72;38.58
15382;BME280;7789;51.364;12.358;2023-04-06T17:24:04;100556.47;;;11.62;38.34
15382;BME280;7789;51.364;12.358;2023-04-06T17:29:10;100560.06;;;11.50;38.68
15382;BME280;7789;51.364;12.358;2023-04-06T17:34:13;100569.38;;;11.43;39.92
15382;BME280;7789;51.364;12.358;2023-04-06T17:39:20;100568.56;;;11.31;40.12
15382;BME280;7789;51.364;12.358;2023-04-06T17:44:25;100576.50;;;11.20;40.41
15382;BME280;7789;51.364;12.358;2023-04-06T17:49:32;100581.75;;;11.09;40.72
15382;BME280;7789;51.364;12.358;2023-04-06T17:54:36;100580.84;;;11.00;40.35
15382;BME280;7789;51.364;12.358;2023-04-06T17:59:41;100590.63;;;10.87;41.52
15382;BME280;7789;51.364;12.358;2023-04-06T18:04:50;100595.03;;;10.75;42.54
15382;BME280;7789;51.364;12.358;2023-04-06T18:09:54;100590.88;;;10.62;41.96
15382;BME280;7789;51.364;12.358;2023-04-06T18:14:59;100600.50;;;10.50;42.07
15382;BME280;7789;51.364;12.358;2023-04-06T18:20:03;100596.81;;;10.42;41.74
15382;BME280;7789;51.364;12.358;2023-04-06T18:25:08;100601.13;;;10.32;42.36
15382;BME280;7789;51.364;12.358;2023-04-06T18:30:16;100600.03;;;10.23;42.36
15382;BME280;7789;51.364;12.358;2023-04-06T18:35:21;100602.63;;;10.12;41.83
15382;BME280;7789;51.364;12.358;2023-04-06T18:40:35;100604.06;;;10.05;42.60
15382;BME280;7789;51.364;12.358;2023-04-06T18:45:41;100606.50;;;9.96;42.67
15382;BME280;7789;51.364;12.358;2023-04-06T18:50:52;100612.41;;;9.87;43.32
15382;BME280;7789;51.364;12.358;2023-04-06T18:55:56;100613.91;;;9.78;43.45
15382;BME280;7789;51.364;12.358;2023-04-06T19:01:01;100617.00;;;9.72;43.26
15382;BME280;7789;51.364;12.358;2023-04-06T19:06:04;100618.59;;;9.62;43.26
15382;BME280;7789;51.364;12.358;2023-04-06T19:11:09;100620.03;;;9.55;44.07
15382;BME280;7789;51.364;12.358;2023-04-06T19:16:14;100618.91;;;9.47;43.75
15382;BME280;7789;51.364;12.358;2023-04-06T19:21:27;100624.34;;;9.44;44.10
15382;BME280;7789;51.364;12.358;2023-04-06T19:26:35;100610.94;;;9.37;44.37
15382;BME280;7789;51.364;12.358;2023-04-06T19:31:40;100616.69;;;9.30;44.23
15382;BME280;7789;51.364;12.358;2023-04-06T19:36:43;100619.88;;;9.22;44.22
15382;BME280;7789;51.364;12.358;2023-04-06T19:41:47;100617.56;;;9.18;44.66
15382;BME280;7789;51.364;12.358;2023-04-06T19:46:52;100623.25;;;9.12;44.47
15382;BME280;7789;51.364;12.358;2023-04-06T19:51:55;100610.63;;;9.06;45.20
15382;BME280;7789;51.364;12.358;2023-04-06T19:56:59;100613.91;;;8.97;45.21
15382;BME280;7789;51.364;12.358;2023-04-06T20:02:07;100612.56;;;8.92;44.82
15382;BME280;7789;51.364;12.358;2023-04-06T20:07:11;100622.59;;;8.85;44.56
15382;BME280;7789;51.364;12.358;2023-04-06T20:12:15;100611.75;;;8.79;45.36
15382;BME280;7789;51.364;12.358;2023-04-06T20:17:20;100618.13;;;8.75;45.36
15382;BME280;7789;51.364;12.358;2023-04-06T20:22:24;100615.13;;;8.68;44.80
15382;BME280;7789;51.364;12.358;2023-04-06T20:27:28;100613.69;;;8.64;44.47
15382;BME280;7789;51.364;12.358;2023-04-06T20:32:33;100618.47;;;8.58;45.32
15382;BME280;7789;51.364;12.358;2023-04-06T20:37:36;100612.97;;;8.50;45.31
15382;BME280;7789;51.364;12.358;2023-04-06T20:42:40;100607.25;;;8.45;46.07
15382;BME280;7789;51.364;12.358;2023-04-06T20:47:45;100610.16;;;8.40;45.36
15382;BME280;7789;51.364;12.358;2023-04-06T20:52:49;100621.00;;;8.34;46.04
15382;BME280;7789;51.364;12.358;2023-04-06T20:57:52;100626.66;;;8.28;45.67
15382;BME280;7789;51.364;12.358;2023-04-06T21:02:57;100613.22;;;8.22;46.08
15382;BME280;7789;51.364;12.358;2023-04-06T21:08:01;100615.34;;;8.15;46.83
15382;BME280;7789;51.364;12.358;2023-04-06T21:13:05;100614.84;;;8.10;45.91
15382;BME280;7789;51.364;12.358;2023-04-06T21:18:10;100612.75;;;8.03;46.14
15382;BME280;7789;51.364;12.358;2023-04-06T21:23:14;100610.47;;;7.98;46.90
15382;BME280;7789;51.364;12.358;2023-04-06T21:28:18;100616.19;;;7.91;47.50
15382;BME280;7789;51.364;12.358;2023-04-06T21:33:23;100613.06;;;7.86;47.71
15382;BME280;7789;51.364;12.358;2023-04-06T21:38:27;100600.44;;;7.80;47.44
15382;BME280;7789;51.364;12.358;2023-04-06T21:43:31;100609.38;;;7.76;48.16
15382;BME280;7789;51.364;12.358;2023-04-06T21:48:36;100602.94;;;7.69;47.96
15382;BME280;7789;51.364;12.358;2023-04-06T21:53:39;100602.50;;;7.62;48.40
15382;BME280;7789;51.364;12.358;2023-04-06T21:58:43;100593.63;;;7.52;47.92
15382;BME280;7789;51.364;12.358;2023-04-06T22:03:47;100599.13;;;7.48;49.23
15382;BME280;7789;51.364;12.358;2023-04-06T22:08:52;100604.72;;;7.42;49.30
15382;BME280;7789;51.364;12.358;2023-04-06T22:13:57;100589.41;;;7.37;49.37
15382;BME280;7789;51.364;12.358;2023-04-06T22:19:04;100593.44;;;7.29;49.86
15382;BME280;7789;51.364;12.358;2023-04-06T22:24:07;100589.41;;;7.25;50.39
15382;BME280;7789;51.364;12.358;2023-04-06T22:29:10;100595.00;;;7.19;49.59
15382;BME280;7789;51.364;12.358;2023-04-06T22:34:15;100597.03;;;7.14;49.93
15382;BME280;7789;51.364;12.358;2023-04-06T22:39:19;100586.22;;;7.08;50.22
15382;BME280;7789;51.364;12.358;2023-04-06T22:44:22;100594.41;;;7.02;50.06
15382;BME280;7789;51.364;12.358;2023-04-06T22:49:27;100582.75;;;6.95;51.01
15382;BME280;7789;51.364;12.358;2023-04-06T22:54:31;100593.41;;;6.90;50.44
15382;BME280;7789;51.364;12.358;2023-04-06T22:59:35;100586.00;;;6.84;50.71
15382;BME280;7789;51.364;12.358;2023-04-06T23:04:39;100582.84;;;6.79;51.03
15382;BME280;7789;51.364;12.358;2023-04-06T23:09:43;100591.88;;;6.74;51.36
15382;BME280;7789;51.364;12.358;2023-04-06T23:14:46;100585.19;;;6.70;51.59
15382;BME280;7789;51.364;12.358;2023-04-06T23:19:51;100589.03;;;6.64;51.47
15382;BME280;7789;51.364;12.358;2023-04-06T23:24:54;100586.59;;;6.61;51.78
15382;BME280;7789;51.364;12.358;2023-04-06T23:29:58;100579.94;;;6.57;51.33
15382;BME280;7789;51.364;12.358;2023-04-06T23:35:03;100588.13;;;6.51;52.00
15382;BME280;7789;51.364;12.358;2023-04-06T23:40:07;100581.53;;;6.46;51.87
15382;BME280;7789;51.364;12.358;2023-04-06T23:45:12;100578.28;;;6.42;52.24
15382;BME280;7789;51.364;12.358;2023-04-06T23:50:17;100575.97;;;6.38;52.29
15382;BME280;7789;51.364;12.358;2023-04-06T23:55:20;100584.06;;;6.33;52.36
